Time;durP1;ratioP1;P1;durP2;ratioP2;P2;SDS_P1;SDS_P2;PMS_P1;PMS_P2;Temp;Humidity;BMP_temperature;BMP_pressure;BME280_temperature;BME280_humidity;BME280_pressure;Samples;Min_cycle;Max_cycle;Signal;HPM_P1;HPM_P2
2023/01/10 00:00:39;;;;;;;;;;;;;;;;;;4977804;28;19920;-86
2023/01/10 00:03:08;;;;;;;;;;;;;;;;;;4978018;28;19918;-88
2023/01/10 00:05:34;;;;;;;;;;;;;;;;;;4976427;28;20318;-87
2023/01/10 00:08:01;;;;;;;;;;;;;;;;;;4977685;28;19965;-88
2023/01/10 00:10:27;;;;;;;;;;;;;;;;;;4977414;28;19925;-88
2023/01/10 00:15:36;;;;;;;;;;;;;;;;;;4977616;28;19926;-88
2023/01/10 00:18:02;;;;;;;;;;;;;;;;;;4960152;28;19921;-89
2023/01/10 00:20:27;;;;;;;;;;;;;;;;;;4977556;28;20433;-87
2023/01/10 00:22:52;;;;;;;;;;;;;;;;;;4977709;28;19918;-88
2023/01/10 00:25:21;;;;;;;;;;;;;;;;;;4977403;28;19922;-88
2023/01/10 00:28:33;;;;;;;;;;;;;;;;;;4977208;28;19914;-87
2023/01/10 00:30:34;;;;;;;;;;;;;;;;;;4966697;28;20382;-87
2023/01/10 00:32:59;;;;;;;;;;;;;;;;;;4977124;28;20009;-89
2023/01/10 00:35:25;;;;;;;;;;;;;;;;;;4975787;28;19949;-88
2023/01/10 00:37:56;;;;;;;;;;;;;;;;;;4959621;28;19942;-89
2023/01/10 00:40:22;;;;;;;;;;;;;;;;;;4975729;28;19918;-88
2023/01/10 00:45:48;;;;;;;;;;;;;;;;;;4936567;29;19923;-88
2023/01/10 00:48:14;;;;;;;;;;;;;;;;;;4951201;28;19918;-88
2023/01/10 00:50:39;;;;;;;;;;;;;;;;;;4959521;28;19930;-88
2023/01/10 00:53:05;;;;;;;;;;;;;;;;;;4975613;28;20290;-91
2023/01/10 00:55:31;;;;;;;;;;;;;;;;;;4959330;28;19919;-87
2023/01/10 00:57:56;;;;;;;;;;;;;;;;;;4959469;28;19925;-88
2023/01/10 01:00:22;;;;;;;;;;;;;;;;;;4976611;28;20313;-87
2023/01/10 01:02:49;;;;;;;;;;;;;;;;;;4974402;28;19929;-87
2023/01/10 01:05:14;;;;;;;;;;;;;;;;;;4976648;28;20281;-87
2023/01/10 01:07:39;;;;;;;;;;;;;;;;;;4976536;28;19918;-88
2023/01/10 01:12:49;;;;;;;;;;;;;;;;;;4976477;28;19984;-87
2023/01/10 01:15:14;;;;;;;;;;;;;;;;;;4958924;28;19918;-88
2023/01/10 01:17:40;;;;;;;;;;;;;;;;;;4976183;28;20039;-88
2023/01/10 01:20:06;;;;;;;;;;;;;;;;;;4976062;28;19919;-91
2023/01/10 01:22:31;;;;;;;;;;;;;;;;;;4958802;28;19925;-88
2023/01/10 01:24:56;;;;;;;;;;;;;;;;;;4976114;28;20012;-88
2023/01/10 01:27:22;;;;;;;;;;;;;;;;;;4974898;28;19925;-88
2023/01/10 01:29:47;;;;;;;;;;;;;;;;;;4976152;28;19960;-87
2023/01/10 01:32:13;;;;;;;;;;;;;;;;;;4974833;28;19918;-87
2023/01/10 01:34:38;;;;;;;;;;;;;;;;;;4976069;28;19918;-89
2023/01/10 01:37:04;;;;;;;;;;;;;;;;;;4975829;28;19925;-89
2023/01/10 01:39:29;;;;;;;;;;;;;;;;;;4975864;28;19990;-88
2023/01/10 01:41:57;;;;;;;;;;;;;;;;;;4975819;28;19984;-88
2023/01/10 01:44:24;;;;;;;;;;;;;;;;;;4958486;28;19918;-89
2023/01/10 01:46:53;;;;;;;;;;;;;;;;;;4958422;28;19914;-89
2023/01/10 01:49:20;;;;;;;;;;;;;;;;;;4975853;28;20285;-89
2023/01/10 01:51:48;;;;;;;;;;;;;;;;;;4975747;28;20375;-88
2023/01/10 01:54:13;;;;;;;;;;;;;;;;;;4975785;28;19918;-87
2023/01/10 01:56:50;;;;;;;;;;;;;;;;;;4975571;28;19965;-88
2023/01/10 01:59:16;;;;;;;;;;;;;;;;;;4958307;28;19918;-87
2023/01/10 02:01:43;;;;;;;;;;;;;;;;;;4975749;28;19965;-88
2023/01/10 02:04:14;;;;;;;;;;;;;;;;;;4975851;28;20018;-88
2023/01/10 02:06:39;;;;;;;;;;;;;;;;;;4975589;28;19973;-87
2023/01/10 02:09:15;;;;;;;;;;;;;;;;;;4975724;28;19922;-90
2023/01/10 02:11:40;;;;;;;;;;;;;;;;;;4975317;28;19922;-88
2023/01/10 02:14:07;;;;;;;;;;;;;;;;;;4975087;28;20263;-89
2023/01/10 02:16:32;;;;;;;;;;;;;;;;;;4957873;28;20017;-88
2023/01/10 02:18:58;;;;;;;;;;;;;;;;;;4974107;28;19957;-87
2023/01/10 02:21:26;;;;;;;;;;;;;;;;;;4974035;28;19918;-87
2023/01/10 02:23:52;;;;;;;;;;;;;;;;;;4975351;28;20001;-88
2023/01/10 02:26:29;;;;;;;;;;;;;;;;;;4974005;28;19976;-88
2023/01/10 02:29:11;;;;;;;;;;;;;;;;;;4974008;28;19914;-88
2023/01/10 02:31:48;;;;;;;;;;;;;;;;;;4974048;28;19940;-88
2023/01/10 02:34:16;;;;;;;;;;;;;;;;;;4975377;28;20302;-88
2023/01/10 02:37:01;;;;;;;;;;;;;;;;;;4980671;23;19981;-87
2023/01/10 02:39:44;;;;;;;;;;;;;;;;;;4957809;28;19918;-88
2023/01/10 02:42:15;;;;;;;;;;;;;;;;;;4957799;28;19922;-89
2023/01/10 02:44:52;;;;;;;;;;;;;;;;;;4957662;28;19918;-87
2023/01/10 02:47:18;;;;;;;;;;;;;;;;;;4957712;28;20026;-88
2023/01/10 02:49:45;;;;;;;;;;;;;;;;;;4957786;28;20394;-90
2023/01/10 02:52:12;;;;;;;;;;;;;;;;;;4957699;28;20285;-87
2023/01/10 02:54:38;;;;;;;;;;;;;;;;;;4957750;28;19918;-87
2023/01/10 02:57:09;;;;;;;;;;;;;;;;;;4973885;28;20381;-89
2023/01/10 02:59:35;;;;;;;;;;;;;;;;;;4976257;28;19922;-89
2023/01/10 03:02:00;;;;;;;;;;;;;;;;;;4980265;28;19929;-89
2023/01/10 03:04:44;;;;;;;;;;;;;;;;;;4979782;28;19945;-87
2023/01/10 03:07:19;;;;;;;;;;;;;;;;;;4983259;28;19941;-88
2023/01/10 03:09:51;;;;;;;;;;;;;;;;;;4974983;28;19957;-88
2023/01/10 03:12:26;;;;;;;;;;;;;;;;;;4964415;28;19951;-88
2023/01/10 03:14:52;;;;;;;;;;;;;;;;;;4957944;28;19925;-89
2023/01/10 03:17:19;;;;;;;;;;;;;;;;;;4957541;28;19918;-89
2023/01/10 03:19:53;;;;;;;;;;;;;;;;;;4957450;28;19918;-88
2023/01/10 03:22:18;;;;;;;;;;;;;;;;;;4957490;28;19990;-88
2023/01/10 03:24:47;;;;;;;;;;;;;;;;;;4958311;28;20440;-89
2023/01/10 03:27:31;;;;;;;;;;;;;;;;;;4978395;28;19914;-88
2023/01/10 03:30:03;;;;;;;;;;;;;;;;;;4961074;28;20330;-89
2023/01/10 03:32:29;;;;;;;;;;;;;;;;;;4978425;28;20293;-89
2023/01/10 03:34:55;;;;;;;;;;;;;;;;;;4960895;28;19925;-87
2023/01/10 03:37:39;;;;;;;;;;;;;;;;;;4978117;28;20014;-88
2023/01/10 03:40:04;;;;;;;;;;;;;;;;;;4978291;28;20271;-88
2023/01/10 03:44:42;;;;;;;;;;;;;;;;;;4960847;28;19914;-89
2023/01/10 03:45:16;;;;;;;;;;;;;;;;;;4978114;28;19918;-89
2023/01/10 03:47:44;;;;;;;;;;;;;;;;;;4960709;28;19914;-88
2023/01/10 03:50:16;;;;;;;;;;;;;;;;;;4978049;28;19929;-87
2023/01/10 03:52:42;;;;;;;;;;;;;;;;;;4978012;28;19985;-88
2023/01/10 03:55:09;;;;;;;;;;;;;;;;;;4960595;28;19925;-89
2023/01/10 03:57:35;;;;;;;;;;;;;;;;;;4977900;28;19992;-87
2023/01/10 04:00:00;;;;;;;;;;;;;;;;;;4960476;28;20370;-89
2023/01/10 04:02:27;;;;;;;;;;;;;;;;;;4960361;28;19918;-88
2023/01/10 04:04:52;;;;;;;;;;;;;;;;;;4960414;28;19922;-88
2023/01/10 04:07:18;;;;;;;;;;;;;;;;;;4960444;28;19940;-89
2023/01/10 04:09:43;;;;;;;;;;;;;;;;;;4977660;28;19994;-88
2023/01/10 04:12:09;;;;;;;;;;;;;;;;;;4960610;28;20402;-88
2023/01/10 04:14:34;;;;;;;;;;;;;;;;;;4977883;28;19928;-88
2023/01/10 04:17:00;;;;;;;;;;;;;;;;;;4977424;28;19926;-88
2023/01/10 04:19:25;;;;;;;;;;;;;;;;;;4977527;28;19968;-88
2023/01/10 04:21:51;;;;;;;;;;;;;;;;;;4977461;28;19949;-87
2023/01/10 04:24:16;;;;;;;;;;;;;;;;;;4959921;28;19925;-88
2023/01/10 04:26:42;;;;;;;;;;;;;;;;;;4960018;28;19972;-88
2023/01/10 04:29:07;;;;;;;;;;;;;;;;;;4977583;28;19914;-87
2023/01/10 04:31:33;;;;;;;;;;;;;;;;;;4959785;28;20008;-87
2023/01/10 04:33:58;;;;;;;;;;;;;;;;;;4959913;28;19918;-89
2023/01/10 04:36:24;;;;;;;;;;;;;;;;;;4959112;28;20030;-88
2023/01/10 04:38:50;;;;;;;;;;;;;;;;;;4959734;28;19918;-88
2023/01/10 04:41:15;;;;;;;;;;;;;;;;;;4959764;28;19925;-88
2023/01/10 04:43:41;;;;;;;;;;;;;;;;;;4977330;28;19925;-88
2023/01/10 04:46:06;;;;;;;;;;;;;;;;;;4976978;28;19925;-90
2023/01/10 04:48:32;;;;;;;;;;;;;;;;;;4976969;28;19925;-88
2023/01/10 04:50:57;;;;;;;;;;;;;;;;;;4959592;28;19918;-90
2023/01/10 04:53:23;;;;;;;;;;;;;;;;;;4959497;28;19925;-90
2023/01/10 04:55:48;;;;;;;;;;;;;;;;;;4976935;28;19925;-89
2023/01/10 04:58:13;;;;;;;;;;;;;;;;;;4959750;28;19922;-89
2023/01/10 05:00:39;;;;;;;;;;;;;;;;;;4959415;28;19922;-88
2023/01/10 05:03:04;;;;;;;;;;;;;;;;;;4975439;28;20389;-88
2023/01/10 05:05:30;;;;;;;;;;;;;;;;;;4959235;28;19925;-88
2023/01/10 05:07:56;;;;;;;;;;;;;;;;;;4958970;28;19914;-88
2023/01/10 05:10:21;;;;;;;;;;;;;;;;;;4976241;28;19972;-87
2023/01/10 05:12:46;;;;;;;;;;;;;;;;;;4976522;28;20017;-88
2023/01/10 05:15:12;;;;;;;;;;;;;;;;;;4959167;28;19925;-87
2023/01/10 05:17:38;;;;;;;;;;;;;;;;;;4976345;28;19918;-88
2023/01/10 05:20:03;;;;;;;;;;;;;;;;;;4976411;28;19989;-89
2023/01/10 05:22:29;;;;;;;;;;;;;;;;;;4976286;28;20297;-90
2023/01/10 05:24:54;;;;;;;;;;;;;;;;;;4958886;28;20299;-87
2023/01/10 05:27:20;;;;;;;;;;;;;;;;;;4959287;28;20378;-87
2023/01/10 05:29:45;;;;;;;;;;;;;;;;;;4959162;28;20366;-87
2023/01/10 05:32:10;;;;;;;;;;;;;;;;;;4976136;28;19973;-90
2023/01/10 05:34:36;;;;;;;;;;;;;;;;;;4976100;28;20366;-89
2023/01/10 05:37:01;;;;;;;;;;;;;;;;;;4975873;28;19976;-89
2023/01/10 05:39:27;;;;;;;;;;;;;;;;;;4958628;28;19918;-88
2023/01/10 05:41:52;;;;;;;;;;;;;;;;;;4976078;28;19950;-88
2023/01/10 05:44:18;;;;;;;;;;;;;;;;;;4975878;28;19918;-89
2023/01/10 05:46:43;;;;;;;;;;;;;;;;;;4975655;28;19926;-88
2023/01/10 05:49:08;;;;;;;;;;;;;;;;;;4975328;28;19922;-88
2023/01/10 05:51:34;;;;;;;;;;;;;;;;;;4958358;28;19918;-88
2023/01/10 05:53:59;;;;;;;;;;;;;;;;;;4975733;28;19922;-88
2023/01/10 05:56:25;;;;;;;;;;;;;;;;;;4975565;28;20068;-89
2023/01/10 05:58:50;;;;;;;;;;;;;;;;;;4958281;28;20271;-87
2023/01/10 06:01:16;;;;;;;;;;;;;;;;;;4975261;28;20396;-87
2023/01/10 06:03:41;;;;;;;;;;;;;;;;;;4957992;28;19918;-88
2023/01/10 06:06:07;;;;;;;;;;;;;;;;;;4975502;28;19925;-88
2023/01/10 06:08:32;;;;;;;;;;;;;;;;;;4958119;28;20373;-87
2023/01/10 06:10:58;;;;;;;;;;;;;;;;;;4975432;28;20008;-87
2023/01/10 06:13:23;;;;;;;;;;;;;;;;;;4975769;28;19918;-87
2023/01/10 06:15:49;;;;;;;;;;;;;;;;;;4957890;28;19922;-87
2023/01/10 06:18:14;;;;;;;;;;;;;;;;;;4957940;28;20312;-89
2023/01/10 06:20:40;;;;;;;;;;;;;;;;;;4957892;28;20373;-88
2023/01/10 06:23:06;;;;;;;;;;;;;;;;;;4957903;28;19918;-88
2023/01/10 06:25:32;;;;;;;;;;;;;;;;;;4974837;28;19965;-86
2023/01/10 06:27:58;;;;;;;;;;;;;;;;;;4975268;28;19918;-87
2023/01/10 06:30:23;;;;;;;;;;;;;;;;;;4957791;28;19924;-86
2023/01/10 06:32:49;;;;;;;;;;;;;;;;;;4975169;28;19938;-88
2023/01/10 06:35:16;;;;;;;;;;;;;;;;;;4975141;28;20434;-87
2023/01/10 06:37:42;;;;;;;;;;;;;;;;;;4957535;28;19922;-88
2023/01/10 06:40:08;;;;;;;;;;;;;;;;;;4957707;28;19918;-88
2023/01/10 06:42:33;;;;;;;;;;;;;;;;;;4974266;28;19918;-88
2023/01/10 06:44:58;;;;;;;;;;;;;;;;;;4975229;28;20267;-86
2023/01/10 06:47:24;;;;;;;;;;;;;;;;;;4974974;28;20008;-87
2023/01/10 06:49:49;;;;;;;;;;;;;;;;;;4957787;28;20297;-86
2023/01/10 06:52:15;;;;;;;;;;;;;;;;;;4957748;28;19919;-86
2023/01/10 06:54:40;;;;;;;;;;;;;;;;;;4957895;28;20370;-87
2023/01/10 06:57:06;;;;;;;;;;;;;;;;;;4972843;28;19922;-87
2023/01/10 06:59:32;;;;;;;;;;;;;;;;;;5001017;28;19910;-86
2023/01/10 07:01:57;;;;;;;;;;;;;;;;;;4986297;28;19906;-87
2023/01/10 07:04:23;;;;;;;;;;;;;;;;;;4986758;28;19922;-86
2023/01/10 07:06:48;;;;;;;;;;;;;;;;;;4964669;28;19946;-85
2023/01/10 07:09:14;;;;;;;;;;;;;;;;;;4980134;28;19918;-86
2023/01/10 07:11:39;;;;;;;;;;;;;;;;;;4978787;28;20378;-86
2023/01/10 07:14:05;;;;;;;;;;;;;;;;;;4978414;28;20005;-87
2023/01/10 07:16:30;;;;;;;;;;;;;;;;;;4961095;28;20259;-86
2023/01/10 07:18:57;;;;;;;;;;;;;;;;;;4961219;28;19925;-86
2023/01/10 07:21:22;;;;;;;;;;;;;;;;;;4977169;28;20271;-86
2023/01/10 07:23:48;;;;;;;;;;;;;;;;;;4978922;28;19918;-87
2023/01/10 07:26:16;;;;;;;;;;;;;;;;;;4978403;28;19918;-85
2023/01/10 07:28:50;;;;;;;;;;;;;;;;;;4978389;28;19919;-85
2023/01/10 07:31:17;;;;;;;;;;;;;;;;;;4961108;28;19925;-86
2023/01/10 07:33:43;;;;;;;;;;;;;;;;;;4961017;28;20025;-87
2023/01/10 07:36:08;;;;;;;;;;;;;;;;;;4978044;28;20016;-87
2023/01/10 07:38:34;;;;;;;;;;;;;;;;;;4978496;28;19918;-87
2023/01/10 07:41:02;;;;;;;;;;;;;;;;;;4978280;28;19922;-87
2023/01/10 07:43:28;;;;;;;;;;;;;;;;;;4978363;28;19925;-87
2023/01/10 07:45:53;;;;;;;;;;;;;;;;;;4978174;28;20375;-87
2023/01/10 07:48:19;;;;;;;;;;;;;;;;;;4960726;28;19922;-87
2023/01/10 07:50:45;;;;;;;;;;;;;;;;;;4978125;28;19973;-88
2023/01/10 07:53:10;;;;;;;;;;;;;;;;;;4978052;28;19918;-88
2023/01/10 07:55:38;;;;;;;;;;;;;;;;;;4960267;28;19918;-86
2023/01/10 07:58:04;;;;;;;;;;;;;;;;;;4960488;28;19918;-87
2023/01/10 08:00:30;;;;;;;;;;;;;;;;;;5144826;23;20421;-87
2023/01/10 08:02:55;;;;;;;;;;;;;;;;;;4977813;28;19918;-87
2023/01/10 08:05:21;;;;;;;;;;;;;;;;;;4976519;28;19925;-87
2023/01/10 08:07:47;;;;;;;;;;;;;;;;;;4960457;28;19956;-89
2023/01/10 08:10:13;;;;;;;;;;;;;;;;;;4959698;28;20355;-88
2023/01/10 08:12:38;;;;;;;;;;;;;;;;;;4977843;28;19922;-87
2023/01/10 08:15:04;;;;;;;;;;;;;;;;;;4977152;28;19922;-87
2023/01/10 08:17:31;;;;;;;;;;;;;;;;;;4976854;28;19929;-89
2023/01/10 08:19:57;;;;;;;;;;;;;;;;;;4960091;28;19918;-88
2023/01/10 08:22:22;;;;;;;;;;;;;;;;;;4960473;28;20259;-89
2023/01/10 08:24:48;;;;;;;;;;;;;;;;;;4960225;28;19968;-89
2023/01/10 08:27:13;;;;;;;;;;;;;;;;;;4976033;28;20017;-88
2023/01/10 08:29:38;;;;;;;;;;;;;;;;;;4977285;28;19918;-88
2023/01/10 08:32:04;;;;;;;;;;;;;;;;;;4976133;28;19977;-89
2023/01/10 08:34:29;;;;;;;;;;;;;;;;;;4977093;28;19922;-88
2023/01/10 08:36:55;;;;;;;;;;;;;;;;;;4977096;28;19925;-89
2023/01/10 08:39:21;;;;;;;;;;;;;;;;;;4976004;28;20309;-89
2023/01/10 08:41:47;;;;;;;;;;;;;;;;;;4977182;28;20016;-90
2023/01/10 08:44:14;;;;;;;;;;;;;;;;;;4968230;28;20057;-90
2023/01/10 08:46:40;;;;;;;;;;;;;;;;;;4950886;28;20025;-90
2023/01/10 08:49:05;;;;;;;;;;;;;;;;;;4966998;28;20069;-89
2023/01/10 08:51:30;;;;;;;;;;;;;;;;;;4968177;28;20275;-89
2023/01/10 08:53:56;;;;;;;;;;;;;;;;;;4968496;28;19922;-89
2023/01/10 08:56:21;;;;;;;;;;;;;;;;;;4973237;28;19929;-89
2023/01/10 08:58:47;;;;;;;;;;;;;;;;;;4959249;28;19926;-91
2023/01/10 09:01:13;;;;;;;;;;;;;;;;;;4979958;28;19922;-89
2023/01/10 09:03:38;;;;;;;;;;;;;;;;;;4974941;28;20255;-90
2023/01/10 09:06:04;;;;;;;;;;;;;;;;;;4976744;28;19972;-91
2023/01/10 09:08:30;;;;;;;;;;;;;;;;;;4976566;28;19949;-89
2023/01/10 09:10:58;;;;;;;;;;;;;;;;;;4976540;28;19997;-89
2023/01/10 09:13:24;;;;;;;;;;;;;;;;;;4958772;28;19918;-88
2023/01/10 09:15:50;;;;;;;;;;;;;;;;;;4975073;28;20350;-88
2023/01/10 09:18:15;;;;;;;;;;;;;;;;;;4975098;28;19964;-91
2023/01/10 09:20:41;;;;;;;;;;;;;;;;;;4975108;28;19918;-90
2023/01/10 09:23:11;;;;;;;;;;;;;;;;;;4975348;28;20362;-92
2023/01/10 09:25:37;;;;;;;;;;;;;;;;;;4975090;28;19918;-89
2023/01/10 09:28:03;;;;;;;;;;;;;;;;;;4976205;28;20290;-88
2023/01/10 09:30:29;;;;;;;;;;;;;;;;;;4976078;28;19918;-87
2023/01/10 09:32:55;;;;;;;;;;;;;;;;;;4976139;28;19926;-89
2023/01/10 09:35:21;;;;;;;;;;;;;;;;;;4976024;28;20501;-90
2023/01/10 09:37:46;;;;;;;;;;;;;;;;;;4958683;28;19925;-87
2023/01/10 09:40:16;;;;;;;;;;;;;;;;;;4958331;28;19918;-89
2023/01/10 09:43:00;;;;;;;;;;;;;;;;;;4976016;28;20004;-88
2023/01/10 09:45:40;;;;;;;;;;;;;;;;;;4974632;28;19925;-87
2023/01/10 09:48:11;;;;;;;;;;;;;;;;;;4974653;28;19964;-90
2023/01/10 09:50:42;;;;;;;;;;;;;;;;;;4974337;28;20009;-88
2023/01/10 09:53:11;;;;;;;;;;;;;;;;;;4975031;28;19950;-88
2023/01/10 09:55:37;;;;;;;;;;;;;;;;;;4975165;28;19918;-88
2023/01/10 09:58:05;;;;;;;;;;;;;;;;;;4976005;28;19918;-88
2023/01/10 10:00:50;;;;;;;;;;;;;;;;;;4975465;28;19925;-89
2023/01/10 10:03:34;;;;;;;;;;;;;;;;;;4974972;28;19918;-88
2023/01/10 10:06:01;;;;;;;;;;;;;;;;;;4974220;28;20386;-88
2023/01/10 10:08:26;;;;;;;;;;;;;;;;;;4975584;28;20301;-89
2023/01/10 10:10:54;;;;;;;;;;;;;;;;;;4975509;28;20009;-91
2023/01/10 10:13:20;;;;;;;;;;;;;;;;;;4974189;28;20017;-89
2023/01/10 10:16:09;;;;;;;;;;;;;;;;;;4975298;28;20362;-89
2023/01/10 10:18:52;;;;;;;;;;;;;;;;;;4948500;28;19929;-89
2023/01/10 10:21:22;;;;;;;;;;;;;;;;;;4956005;29;19918;-88
2023/01/10 10:23:47;;;;;;;;;;;;;;;;;;4938885;29;20375;-88
2023/01/10 10:26:19;;;;;;;;;;;;;;;;;;4956171;29;20009;-89
2023/01/10 10:29:12;;;;;;;;;;;;;;;;;;4955982;29;19950;-89
2023/01/10 10:31:40;;;;;;;;;;;;;;;;;;4956453;29;19919;-89
2023/01/10 10:34:23;;;;;;;;;;;;;;;;;;4954228;28;20294;-89
2023/01/10 10:36:55;;;;;;;;;;;;;;;;;;4954614;29;20103;-88
2023/01/10 10:39:28;;;;;;;;;;;;;;;;;;4967014;28;19988;-89
2023/01/10 10:41:55;;;;;;;;;;;;;;;;;;4973961;28;19919;-89
2023/01/10 10:44:31;;;;;;;;;;;;;;;;;;4971810;28;19926;-88
2023/01/10 10:46:58;;;;;;;;;;;;;;;;;;4958583;28;19957;-89
2023/01/10 10:49:38;;;;;;;;;;;;;;;;;;4990765;28;19976;-89
2023/01/10 10:52:10;;;;;;;;;;;;;;;;;;4997020;28;19930;-88
2023/01/10 10:54:35;;;;;;;;;;;;;;;;;;4982821;28;19929;-89
2023/01/10 10:57:01;;;;;;;;;;;;;;;;;;4967166;28;20441;-89
2023/01/10 10:59:27;;;;;;;;;;;;;;;;;;4961246;28;20374;-87
2023/01/10 11:01:52;;;;;;;;;;;;;;;;;;4974680;28;19926;-87
2023/01/10 11:04:19;;;;;;;;;;;;;;;;;;4975006;28;20275;-88
2023/01/10 11:06:48;;;;;;;;;;;;;;;;;;4957573;28;20001;-88
2023/01/10 11:09:17;;;;;;;;;;;;;;;;;;4974868;28;19926;-89
2023/01/10 11:11:44;;;;;;;;;;;;;;;;;;4957394;28;19914;-88
2023/01/10 11:14:11;;;;;;;;;;;;;;;;;;4957276;28;20409;-89
2023/01/10 11:16:40;;;;;;;;;;;;;;;;;;4957398;28;19919;-89
2023/01/10 11:19:18;;;;;;;;;;;;;;;;;;4957383;28;20390;-89
2023/01/10 11:21:47;;;;;;;;;;;;;;;;;;4957430;28;19925;-89
2023/01/10 11:24:24;;;;;;;;;;;;;;;;;;4957389;28;20461;-88
2023/01/10 11:26:50;;;;;;;;;;;;;;;;;;4974696;28;19931;-88
2023/01/10 11:29:16;;;;;;;;;;;;;;;;;;4974449;28;19928;-89
2023/01/10 11:31:41;;;;;;;;;;;;;;;;;;4974387;28;19997;-89
2023/01/10 11:34:19;;;;;;;;;;;;;;;;;;4966031;28;20117;-89
2023/01/10 11:36:54;;;;;;;;;;;;;;;;;;4956577;28;19929;-90
2023/01/10 11:39:20;;;;;;;;;;;;;;;;;;4956936;28;19919;-88
2023/01/10 11:41:48;;;;;;;;;;;;;;;;;;4974194;28;19918;-89
2023/01/10 11:44:20;;;;;;;;;;;;;;;;;;4956902;28;19919;-89
2023/01/10 11:46:46;;;;;;;;;;;;;;;;;;4958919;28;19922;-89
2023/01/10 11:49:19;;;;;;;;;;;;;;;;;;4977935;28;19965;-89
2023/01/10 11:51:49;;;;;;;;;;;;;;;;;;4973652;28;20000;-88
2023/01/10 11:54:18;;;;;;;;;;;;;;;;;;4960289;28;19956;-90
2023/01/10 11:56:50;;;;;;;;;;;;;;;;;;4960368;28;20283;-89
2023/01/10 11:59:16;;;;;;;;;;;;;;;;;;4977770;28;19922;-89
2023/01/10 12:01:44;;;;;;;;;;;;;;;;;;4960656;28;19922;-88
2023/01/10 12:04:14;;;;;;;;;;;;;;;;;;4977981;28;19922;-88
2023/01/10 12:06:46;;;;;;;;;;;;;;;;;;4977972;28;19914;-89
2023/01/10 12:09:30;;;;;;;;;;;;;;;;;;4960426;28;20012;-88
2023/01/10 12:12:00;;;;;;;;;;;;;;;;;;4960028;28;19914;-88
2023/01/10 12:14:26;;;;;;;;;;;;;;;;;;4977498;28;19922;-87
2023/01/10 12:16:57;;;;;;;;;;;;;;;;;;4977399;28;19941;-89
2023/01/10 12:19:22;;;;;;;;;;;;;;;;;;4977240;28;19918;-88
2023/01/10 12:21:49;;;;;;;;;;;;;;;;;;4958584;28;19945;-89
2023/01/10 12:24:20;;;;;;;;;;;;;;;;;;4967042;28;19926;-87
2023/01/10 12:26:46;;;;;;;;;;;;;;;;;;4967436;28;20444;-89
2023/01/10 12:29:15;;;;;;;;;;;;;;;;;;4956541;28;19922;-87
2023/01/10 12:31:40;;;;;;;;;;;;;;;;;;4958990;28;19964;-89
2023/01/10 12:34:19;;;;;;;;;;;;;;;;;;4959310;28;20331;-90
2023/01/10 12:36:50;;;;;;;;;;;;;;;;;;4959543;28;19976;-89
2023/01/10 12:39:23;;;;;;;;;;;;;;;;;;4959458;28;19942;-88
2023/01/10 12:44:53;;;;;;;;;;;;;;;;;;4978129;28;19934;-89
2023/01/10 12:47:57;;;;;;;;;;;;;;;;;;4960192;28;19961;-87
2023/01/10 12:50:26;;;;;;;;;;;;;;;;;;4879490;29;19960;-88
2023/01/10 12:52:57;;;;;;;;;;;;;;;;;;4879315;29;19948;-90
2023/01/10 12:55:25;;;;;;;;;;;;;;;;;;4879196;29;20408;-87
2023/01/10 12:57:52;;;;;;;;;;;;;;;;;;4863517;29;20044;-89
2023/01/10 13:00:23;;;;;;;;;;;;;;;;;;4861842;29;20337;-89
2023/01/10 13:02:50;;;;;;;;;;;;;;;;;;4878538;29;19934;-89
2023/01/10 13:05:22;;;;;;;;;;;;;;;;;;4879241;29;19927;-90
2023/01/10 13:07:48;;;;;;;;;;;;;;;;;;4879241;29;20403;-88
2023/01/10 13:10:19;;;;;;;;;;;;;;;;;;4879043;29;19937;-87
2023/01/10 13:12:49;;;;;;;;;;;;;;;;;;4882676;29;19919;-88
2023/01/10 13:15:26;;;;;;;;;;;;;;;;;;4879357;29;19948;-88
2023/01/10 13:18:00;;;;;;;;;;;;;;;;;;4881588;29;19959;-88
2023/01/10 13:20:28;;;;;;;;;;;;;;;;;;4899105;28;19925;-89
2023/01/10 13:22:55;;;;;;;;;;;;;;;;;;4977418;28;19965;-88
2023/01/10 13:25:21;;;;;;;;;;;;;;;;;;4976624;28;19925;-88
2023/01/10 13:27:54;;;;;;;;;;;;;;;;;;4976338;28;19918;-87
2023/01/10 13:30:30;;;;;;;;;;;;;;;;;;4974590;28;19918;-88
2023/01/10 13:32:58;;;;;;;;;;;;;;;;;;4974591;28;20362;-88
2023/01/10 13:35:27;;;;;;;;;;;;;;;;;;4974858;28;19933;-88
2023/01/10 13:37:54;;;;;;;;;;;;;;;;;;4972797;28;19918;-89
2023/01/10 13:40:29;;;;;;;;;;;;;;;;;;4956079;28;19922;-89
2023/01/10 13:43:19;;;;;;;;;;;;;;;;;;4973745;28;19918;-88
2023/01/10 13:45:45;;;;;;;;;;;;;;;;;;4957609;28;20446;-88
2023/01/10 13:48:24;;;;;;;;;;;;;;;;;;4975049;28;19957;-90
2023/01/10 13:50:51;;;;;;;;;;;;;;;;;;4957790;28;19961;-88
2023/01/10 13:53:17;;;;;;;;;;;;;;;;;;4974867;28;19988;-89
2023/01/10 13:55:48;;;;;;;;;;;;;;;;;;4975334;28;20370;-89
2023/01/10 14:02:27;;;;;;;;;;;;;;;;;;4975287;28;19918;-89
2023/01/10 14:03:57;;;;;;;;;;;;;;;;;;4975705;28;19942;-88
2023/01/10 14:06:28;;;;;;;;;;;;;;;;;;4975238;28;20355;-88
2023/01/10 14:08:57;;;;;;;;;;;;;;;;;;4973317;28;19924;-90
2023/01/10 14:11:24;;;;;;;;;;;;;;;;;;4970359;28;19969;-89
2023/01/10 14:14:00;;;;;;;;;;;;;;;;;;4976421;28;19918;-89
2023/01/10 14:16:30;;;;;;;;;;;;;;;;;;4994556;28;20332;-89
2023/01/10 14:18:56;;;;;;;;;;;;;;;;;;4976746;28;20300;-87
2023/01/10 14:21:26;;;;;;;;;;;;;;;;;;4977034;28;19922;-87
2023/01/10 14:23:52;;;;;;;;;;;;;;;;;;4994476;28;19918;-87
2023/01/10 14:26:39;;;;;;;;;;;;;;;;;;4993255;28;19945;-87
2023/01/10 14:29:12;;;;;;;;;;;;;;;;;;4994389;28;19917;-88
2023/01/10 14:31:42;;;;;;;;;;;;;;;;;;4994189;28;19986;-88
2023/01/10 14:34:10;;;;;;;;;;;;;;;;;;4977150;28;19918;-89
2023/01/10 14:36:44;;;;;;;;;;;;;;;;;;4994465;28;19948;-89
2023/01/10 14:39:12;;;;;;;;;;;;;;;;;;4994799;28;19922;-89
2023/01/10 14:41:38;;;;;;;;;;;;;;;;;;4977180;28;19921;-89
2023/01/10 14:44:12;;;;;;;;;;;;;;;;;;4977083;28;19918;-89
2023/01/10 14:46:40;;;;;;;;;;;;;;;;;;4994733;28;19921;-89
2023/01/10 14:49:26;;;;;;;;;;;;;;;;;;4994543;28;19961;-89
2023/01/10 14:51:52;;;;;;;;;;;;;;;;;;4977227;28;20004;-89
2023/01/10 14:54:19;;;;;;;;;;;;;;;;;;4976998;28;19925;-88
2023/01/10 14:56:46;;;;;;;;;;;;;;;;;;4994320;28;20358;-88
2023/01/10 14:59:22;;;;;;;;;;;;;;;;;;4976885;28;19917;-88
2023/01/10 15:01:48;;;;;;;;;;;;;;;;;;4992931;28;20366;-89
2023/01/10 15:04:18;;;;;;;;;;;;;;;;;;4976889;28;19953;-89
2023/01/10 15:06:56;;;;;;;;;;;;;;;;;;4976992;28;20365;-88
2023/01/10 15:09:23;;;;;;;;;;;;;;;;;;4994397;28;20440;-89
2023/01/10 15:11:49;;;;;;;;;;;;;;;;;;4974170;28;20361;-88
2023/01/10 15:14:16;;;;;;;;;;;;;;;;;;4946673;28;19923;-90
2023/01/10 15:16:42;;;;;;;;;;;;;;;;;;4981901;28;19922;-88
2023/01/10 15:19:16;;;;;;;;;;;;;;;;;;4994320;28;19941;-88
2023/01/10 15:21:43;;;;;;;;;;;;;;;;;;4996068;28;19918;-88
2023/01/10 15:24:24;;;;;;;;;;;;;;;;;;4983477;28;20364;-87
2023/01/10 15:26:53;;;;;;;;;;;;;;;;;;4978282;28;20405;-89
2023/01/10 15:29:22;;;;;;;;;;;;;;;;;;4978470;28;19918;-87
2023/01/10 15:31:48;;;;;;;;;;;;;;;;;;4979543;28;19917;-89
2023/01/10 15:34:17;;;;;;;;;;;;;;;;;;4963369;28;20255;-88
2023/01/10 15:37:03;;;;;;;;;;;;;;;;;;4964851;28;19918;-89
2023/01/10 15:39:34;;;;;;;;;;;;;;;;;;4961704;28;19918;-89
2023/01/10 15:42:02;;;;;;;;;;;;;;;;;;4957581;28;20295;-88
2023/01/10 15:44:52;;;;;;;;;;;;;;;;;;4978974;28;19918;-86
2023/01/10 15:47:29;;;;;;;;;;;;;;;;;;4961139;28;20293;-88
2023/01/10 15:49:55;;;;;;;;;;;;;;;;;;4978705;28;20421;-88
2023/01/10 15:52:21;;;;;;;;;;;;;;;;;;4979457;28;19918;-85
2023/01/10 15:54:47;;;;;;;;;;;;;;;;;;4960722;28;19922;-90
2023/01/10 15:57:24;;;;;;;;;;;;;;;;;;4978337;28;19972;-87
2023/01/10 15:59:50;;;;;;;;;;;;;;;;;;4962122;28;20001;-90
2023/01/10 16:02:23;;;;;;;;;;;;;;;;;;4978173;28;20012;-90
2023/01/10 16:04:49;;;;;;;;;;;;;;;;;;4978630;28;19926;-86
2023/01/10 16:07:21;;;;;;;;;;;;;;;;;;4977884;28;19918;-89
2023/01/10 16:10:00;;;;;;;;;;;;;;;;;;4978521;28;19918;-86
2023/01/10 16:15:21;;;;;;;;;;;;;;;;;;4979051;28;19925;-88
2023/01/10 16:17:47;;;;;;;;;;;;;;;;;;4961035;28;19918;-89
2023/01/10 16:20:13;;;;;;;;;;;;;;;;;;4977643;28;19918;-89
2023/01/10 16:22:39;;;;;;;;;;;;;;;;;;4977877;28;20009;-88
2023/01/10 16:25:04;;;;;;;;;;;;;;;;;;4976583;28;19965;-89
2023/01/10 16:27:30;;;;;;;;;;;;;;;;;;4977523;28;19926;-88
2023/01/10 16:29:55;;;;;;;;;;;;;;;;;;4979732;28;19919;-89
2023/01/10 16:32:21;;;;;;;;;;;;;;;;;;4976360;28;19918;-87
2023/01/10 16:34:47;;;;;;;;;;;;;;;;;;4977933;28;19918;-88
2023/01/10 16:37:13;;;;;;;;;;;;;;;;;;4978073;28;19950;-88
2023/01/10 16:39:38;;;;;;;;;;;;;;;;;;4978519;28;19946;-89
2023/01/10 16:45:01;;;;;;;;;;;;;;;;;;4934808;28;20362;-89
2023/01/10 16:47:26;;;;;;;;;;;;;;;;;;4975731;28;19919;-90
2023/01/10 16:49:52;;;;;;;;;;;;;;;;;;4977316;28;19966;-89
2023/01/10 16:52:17;;;;;;;;;;;;;;;;;;4977282;28;19918;-88
2023/01/10 16:54:43;;;;;;;;;;;;;;;;;;4977128;28;19918;-90
2023/01/10 16:57:10;;;;;;;;;;;;;;;;;;4959394;28;19958;-89
2023/01/10 16:59:35;;;;;;;;;;;;;;;;;;4959420;28;19922;-90
2023/01/10 17:02:01;;;;;;;;;;;;;;;;;;4976868;28;19929;-89
2023/01/10 17:04:29;;;;;;;;;;;;;;;;;;4975596;28;20370;-89
2023/01/10 17:06:55;;;;;;;;;;;;;;;;;;4959329;28;19942;-89
2023/01/10 17:09:23;;;;;;;;;;;;;;;;;;4976589;28;19922;-90
2023/01/10 17:11:53;;;;;;;;;;;;;;;;;;4975253;28;20020;-89
2023/01/10 17:14:18;;;;;;;;;;;;;;;;;;4976731;28;20297;-88